Main page
METAR-TAF:

METAR-TAF

Airports :

Murcia–San Javier Airport

Murcia, Spain

latitude: 37-47N, longitude: 000-48W, elevation: 5 m

Current weather observation

The report was made 28 minutes ago, at 22:00 UTC
Wind 5 kt from the West
Temperature 8°C
Humidity 100%
Pressure 1023 hPa
Visibility: 9000 m

METAR: LELC 102200Z AUTO 26005KT 9000 NCD 08/08 Q1023

Time: 23:28 (22:28 UTC)

Forecast

The report was made 5 hours and 28 minutes ago, at 17:00 UTC
Forecast valid from 10 at 18 UTC to 11 at 18 UTC
Wind 6 kt from the West
Visibility 10 km or more
no clouds below 1500 m and no cumulonimbus

TAF: LELC 101700Z 1018/1118 27006KT CAVOK TX20/1114Z TN12/1106Z

Weather observations and forecasts of more than 4000 airports (METAR and TAF reports).

The available stations are represented by yellow and red dots on the map.

Hover mouse over dot to see the name of the station.

Then click to see weather observations and forecasts.

To change the map : click on the green buttons with a black cross to zoom in, on the green button with a dash to zoom out, or on the green arrows for adjacent maps.


METAR-TAF: